sensor_id;sensor_type;location;lat;lon;timestamp;temperature;humidity
324;DHT22;149;51.094;17.002;2022-08-01T00:01:33;16.80;99.90
324;DHT22;149;51.094;17.002;2022-08-01T00:07:16;16.70;99.90
324;DHT22;149;51.094;17.002;2022-08-01T00:09:45;16.80;99.90
324;DHT22;149;51.094;17.002;2022-08-01T00:29:20;16.40;99.90
324;DHT22;149;51.094;17.002;2022-08-01T00:40:10;16.60;99.90
324;DHT22;149;51.094;17.002;2022-08-01T00:43:09;16.60;99.90
324;DHT22;149;51.094;17.002;2022-08-01T01:01:11;16.50;99.90
324;DHT22;149;51.094;17.002;2022-08-01T01:16:58;16.50;99.90
324;DHT22;149;51.094;17.002;2022-08-01T01:19:30;16.70;99.90
324;DHT22;149;51.094;17.002;2022-08-01T01:33:31;16.40;99.90
324;DHT22;149;51.094;17.002;2022-08-01T01:36:47;16.40;99.90
324;DHT22;149;51.094;17.002;2022-08-01T01:39:31;16.50;99.90
324;DHT22;149;51.094;17.002;2022-08-01T01:42:11;16.00;99.90
324;DHT22;149;51.094;17.002;2022-08-01T01:44:40;16.00;99.90
324;DHT22;149;51.094;17.002;2022-08-01T01:47:53;16.30;99.90
324;DHT22;149;51.094;17.002;2022-08-01T01:51:03;16.30;99.90
324;DHT22;149;51.094;17.002;2022-08-01T02:01:31;16.50;99.90
324;DHT22;149;51.094;17.002;2022-08-01T02:04:32;16.50;99.90
324;DHT22;149;51.094;17.002;2022-08-01T02:07:56;16.60;99.90
324;DHT22;149;51.094;17.002;2022-08-01T02:10:26;16.70;99.90
324;DHT22;149;51.094;17.002;2022-08-01T02:13:08;16.70;99.90
324;DHT22;149;51.094;17.002;2022-08-01T02:16:01;16.60;99.90
324;DHT22;149;51.094;17.002;2022-08-01T02:22:10;16.40;99.90
324;DHT22;149;51.094;17.002;2022-08-01T02:25:04;17.70;99.90
324;DHT22;149;51.094;17.002;2022-08-01T02:32:31;16.40;99.90
324;DHT22;149;51.094;17.002;2022-08-01T02:35:01;16.30;99.90
324;DHT22;149;51.094;17.002;2022-08-01T02:38:03;16.50;99.90
324;DHT22;149;51.094;17.002;2022-08-01T02:40:33;16.30;99.90
324;DHT22;149;51.094;17.002;2022-08-01T03:06:07;16.30;99.90
324;DHT22;149;51.094;17.002;2022-08-01T03:08:36;16.30;99.90
324;DHT22;149;51.094;17.002;2022-08-01T03:11:18;16.50;99.90
324;DHT22;149;51.094;17.002;2022-08-01T03:13:53;16.20;99.90
324;DHT22;149;51.094;17.002;2022-08-01T03:57:40;17.90;99.90
324;DHT22;149;51.094;17.002;2022-08-01T04:00:12;18.40;99.90
324;DHT22;149;51.094;17.002;2022-08-01T04:02:46;18.40;99.90
324;DHT22;149;51.094;17.002;2022-08-01T04:18:43;18.20;99.90
324;DHT22;149;51.094;17.002;2022-08-01T04:56:59;18.80;99.90
324;DHT22;149;51.094;17.002;2022-08-01T04:59:30;18.60;99.90
324;DHT22;149;51.094;17.002;2022-08-01T05:02:09;18.80;99.90
324;DHT22;149;51.094;17.002;2022-08-01T05:04:37;19.00;99.90
324;DHT22;149;51.094;17.002;2022-08-01T05:07:07;19.20;99.90
324;DHT22;149;51.094;17.002;2022-08-01T05:09:36;19.40;99.90
324;DHT22;149;51.094;17.002;2022-08-01T05:12:05;19.70;99.90
324;DHT22;149;51.094;17.002;2022-08-01T05:14:33;19.70;99.90
324;DHT22;149;51.094;17.002;2022-08-01T05:17:03;19.50;99.90
324;DHT22;149;51.094;17.002;2022-08-01T05:19:31;19.60;99.90
324;DHT22;149;51.094;17.002;2022-08-01T05:22:01;19.60;99.90
324;DHT22;149;51.094;17.002;2022-08-01T05:24:31;19.40;99.90
324;DHT22;149;51.094;17.002;2022-08-01T05:27:01;19.60;99.90
324;DHT22;149;51.094;17.002;2022-08-01T05:29:29;19.80;99.90
324;DHT22;149;51.094;17.002;2022-08-01T05:31:56;19.80;99.90
324;DHT22;149;51.094;17.002;2022-08-01T05:34:25;19.90;99.90
324;DHT22;149;51.094;17.002;2022-08-01T05:36:52;20.10;99.90
324;DHT22;149;51.094;17.002;2022-08-01T05:39:23;20.30;99.90
324;DHT22;149;51.094;17.002;2022-08-01T05:41:50;20.10;99.90
324;DHT22;149;51.094;17.002;2022-08-01T05:44:17;20.30;99.90
324;DHT22;149;51.094;17.002;2022-08-01T05:46:43;20.60;99.90
324;DHT22;149;51.094;17.002;2022-08-01T05:49:10;20.80;99.90
324;DHT22;149;51.094;17.002;2022-08-01T05:51:37;21.10;99.90
324;DHT22;149;51.094;17.002;2022-08-01T05:54:04;21.10;99.90
324;DHT22;149;51.094;17.002;2022-08-01T05:56:31;21.30;99.90
324;DHT22;149;51.094;17.002;2022-08-01T05:58:58;21.40;99.90
324;DHT22;149;51.094;17.002;2022-08-01T06:01:25;21.30;99.90
324;DHT22;149;51.094;17.002;2022-08-01T06:03:52;21.50;99.90
324;DHT22;149;51.094;17.002;2022-08-01T06:06:21;21.70;99.90
324;DHT22;149;51.094;17.002;2022-08-01T06:08:51;21.90;99.90
324;DHT22;149;51.094;17.002;2022-08-01T06:11:18;22.10;99.90
324;DHT22;149;51.094;17.002;2022-08-01T06:13:45;22.40;99.90
324;DHT22;149;51.094;17.002;2022-08-01T06:16:14;22.60;99.90
324;DHT22;149;51.094;17.002;2022-08-01T06:18:41;22.80;99.90
324;DHT22;149;51.094;17.002;2022-08-01T06:21:08;23.00;99.90
324;DHT22;149;51.094;17.002;2022-08-01T06:23:35;23.20;99.90
324;DHT22;149;51.094;17.002;2022-08-01T06:26:02;23.70;99.90
324;DHT22;149;51.094;17.002;2022-08-01T06:28:29;23.90;99.90
324;DHT22;149;51.094;17.002;2022-08-01T06:30:56;24.20;99.90
324;DHT22;149;51.094;17.002;2022-08-01T06:33:26;24.40;99.90
324;DHT22;149;51.094;17.002;2022-08-01T06:35:53;24.80;99.90
324;DHT22;149;51.094;17.002;2022-08-01T06:38:20;25.00;99.90
324;DHT22;149;51.094;17.002;2022-08-01T06:40:49;24.70;99.90
324;DHT22;149;51.094;17.002;2022-08-01T06:43:16;24.70;99.90
324;DHT22;149;51.094;17.002;2022-08-01T06:45:43;24.60;99.90
324;DHT22;149;51.094;17.002;2022-08-01T06:48:10;24.40;99.90
324;DHT22;149;51.094;17.002;2022-08-01T06:50:37;24.20;99.90
324;DHT22;149;51.094;17.002;2022-08-01T06:53:04;24.40;99.90
324;DHT22;149;51.094;17.002;2022-08-01T06:55:31;24.80;99.90
324;DHT22;149;51.094;17.002;2022-08-01T06:57:58;24.90;99.90
324;DHT22;149;51.094;17.002;2022-08-01T07:00:26;24.90;99.90
324;DHT22;149;51.094;17.002;2022-08-01T07:02:55;25.20;99.90
324;DHT22;149;51.094;17.002;2022-08-01T07:05:23;25.50;99.90
324;DHT22;149;51.094;17.002;2022-08-01T07:07:50;25.80;99.90
324;DHT22;149;51.094;17.002;2022-08-01T07:10:17;26.40;99.90
324;DHT22;149;51.094;17.002;2022-08-01T07:12:44;27.10;99.90
324;DHT22;149;51.094;17.002;2022-08-01T07:15:12;27.50;99.90
324;DHT22;149;51.094;17.002;2022-08-01T07:17:40;27.70;99.90
324;DHT22;149;51.094;17.002;2022-08-01T07:20:09;27.80;99.90
324;DHT22;149;51.094;17.002;2022-08-01T07:22:37;27.60;99.90
324;DHT22;149;51.094;17.002;2022-08-01T07:25:05;27.70;99.90
324;DHT22;149;51.094;17.002;2022-08-01T07:27:35;27.60;99.90
324;DHT22;149;51.094;17.002;2022-08-01T07:30:05;27.30;99.90
324;DHT22;149;51.094;17.002;2022-08-01T07:32:33;27.30;99.90
324;DHT22;149;51.094;17.002;2022-08-01T07:35:02;27.30;99.90
324;DHT22;149;51.094;17.002;2022-08-01T07:37:29;27.50;99.90
324;DHT22;149;51.094;17.002;2022-08-01T07:40:17;27.40;99.90
324;DHT22;149;51.094;17.002;2022-08-01T07:42:46;27.50;99.90
324;DHT22;149;51.094;17.002;2022-08-01T07:45:23;27.50;99.90
324;DHT22;149;51.094;17.002;2022-08-01T07:48:14;27.30;99.90
324;DHT22;149;51.094;17.002;2022-08-01T07:50:43;27.00;99.90
324;DHT22;149;51.094;17.002;2022-08-01T07:53:10;27.10;99.90
324;DHT22;149;51.094;17.002;2022-08-01T07:55:37;27.00;99.90
324;DHT22;149;51.094;17.002;2022-08-01T07:58:04;27.20;99.90
324;DHT22;149;51.094;17.002;2022-08-01T08:00:31;28.00;99.90
324;DHT22;149;51.094;17.002;2022-08-01T08:02:58;28.00;99.90
324;DHT22;149;51.094;17.002;2022-08-01T08:05:26;27.80;99.90
324;DHT22;149;51.094;17.002;2022-08-01T08:08:16;27.80;99.90
324;DHT22;149;51.094;17.002;2022-08-01T08:10:47;27.70;99.90
324;DHT22;149;51.094;17.002;2022-08-01T08:13:14;27.40;99.90
324;DHT22;149;51.094;17.002;2022-08-01T08:15:41;27.90;99.90
324;DHT22;149;51.094;17.002;2022-08-01T08:18:13;27.80;99.90
324;DHT22;149;51.094;17.002;2022-08-01T08:20:40;28.70;99.90
324;DHT22;149;51.094;17.002;2022-08-01T08:23:07;29.20;99.90
324;DHT22;149;51.094;17.002;2022-08-01T08:26:07;29.90;99.90
324;DHT22;149;51.094;17.002;2022-08-01T08:28:34;31.80;99.90
324;DHT22;149;51.094;17.002;2022-08-01T08:31:01;31.70;99.90
324;DHT22;149;51.094;17.002;2022-08-01T08:33:27;31.10;99.90
324;DHT22;149;51.094;17.002;2022-08-01T08:35:55;30.70;99.90
324;DHT22;149;51.094;17.002;2022-08-01T08:38:21;30.40;99.90
324;DHT22;149;51.094;17.002;2022-08-01T08:40:56;29.60;99.90
324;DHT22;149;51.094;17.002;2022-08-01T08:43:24;28.50;99.90
324;DHT22;149;51.094;17.002;2022-08-01T08:45:52;27.70;99.90
324;DHT22;149;51.094;17.002;2022-08-01T08:48:25;27.10;99.90
324;DHT22;149;51.094;17.002;2022-08-01T08:50:53;26.80;99.90
324;DHT22;149;51.094;17.002;2022-08-01T08:53:22;26.80;99.90
324;DHT22;149;51.094;17.002;2022-08-01T08:55:49;26.40;99.90
324;DHT22;149;51.094;17.002;2022-08-01T08:58:22;26.50;99.90
324;DHT22;149;51.094;17.002;2022-08-01T09:00:57;26.80;99.90
324;DHT22;149;51.094;17.002;2022-08-01T09:03:24;26.90;99.90
324;DHT22;149;51.094;17.002;2022-08-01T09:05:51;26.90;99.90
324;DHT22;149;51.094;17.002;2022-08-01T09:08:18;26.90;99.90
324;DHT22;149;51.094;17.002;2022-08-01T09:10:45;27.10;99.90
324;DHT22;149;51.094;17.002;2022-08-01T09:13:13;27.90;99.90
324;DHT22;149;51.094;17.002;2022-08-01T09:15:51;29.30;99.90
324;DHT22;149;51.094;17.002;2022-08-01T09:23:39;28.50;99.90
324;DHT22;149;51.094;17.002;2022-08-01T09:26:28;28.00;99.90
324;DHT22;149;51.094;17.002;2022-08-01T09:28:57;28.40;99.90
324;DHT22;149;51.094;17.002;2022-08-01T09:31:27;28.70;99.90
324;DHT22;149;51.094;17.002;2022-08-01T09:34:04;28.80;99.90
324;DHT22;149;51.094;17.002;2022-08-01T09:37:01;29.40;99.90
324;DHT22;149;51.094;17.002;2022-08-01T09:39:33;29.90;99.90
324;DHT22;149;51.094;17.002;2022-08-01T09:42:25;30.20;99.90
324;DHT22;149;51.094;17.002;2022-08-01T09:44:55;29.90;99.90
324;DHT22;149;51.094;17.002;2022-08-01T09:47:22;29.70;99.90
324;DHT22;149;51.094;17.002;2022-08-01T09:50:04;29.50;99.90
324;DHT22;149;51.094;17.002;2022-08-01T09:52:36;29.70;99.90
324;DHT22;149;51.094;17.002;2022-08-01T09:55:07;30.20;99.90
324;DHT22;149;51.094;17.002;2022-08-01T09:57:34;30.40;99.90
324;DHT22;149;51.094;17.002;2022-08-01T10:00:02;30.50;99.90
324;DHT22;149;51.094;17.002;2022-08-01T10:02:35;30.30;99.90
324;DHT22;149;51.094;17.002;2022-08-01T10:05:08;30.00;99.90
324;DHT22;149;51.094;17.002;2022-08-01T10:07:54;29.50;99.90
324;DHT22;149;51.094;17.002;2022-08-01T10:10:24;29.60;99.90
324;DHT22;149;51.094;17.002;2022-08-01T10:12:57;29.50;99.90
324;DHT22;149;51.094;17.002;2022-08-01T10:15:26;29.20;99.90
324;DHT22;149;51.094;17.002;2022-08-01T10:18:06;29.10;99.90
324;DHT22;149;51.094;17.002;2022-08-01T10:20:51;29.40;99.90
324;DHT22;149;51.094;17.002;2022-08-01T10:23:22;29.50;99.90
324;DHT22;149;51.094;17.002;2022-08-01T10:26:08;29.50;99.90
324;DHT22;149;51.094;17.002;2022-08-01T10:28:37;29.30;99.90
324;DHT22;149;51.094;17.002;2022-08-01T10:31:07;29.10;99.90
324;DHT22;149;51.094;17.002;2022-08-01T10:33:40;28.90;99.90
324;DHT22;149;51.094;17.002;2022-08-01T10:36:21;28.90;99.90
324;DHT22;149;51.094;17.002;2022-08-01T10:38:53;29.00;99.90
324;DHT22;149;51.094;17.002;2022-08-01T10:41:21;29.30;99.90
324;DHT22;149;51.094;17.002;2022-08-01T10:43:48;29.80;99.90
324;DHT22;149;51.094;17.002;2022-08-01T10:46:17;30.50;99.90
324;DHT22;149;51.094;17.002;2022-08-01T10:48:53;30.50;99.90
324;DHT22;149;51.094;17.002;2022-08-01T10:51:23;32.00;99.90
324;DHT22;149;51.094;17.002;2022-08-01T10:54:12;30.70;99.90
324;DHT22;149;51.094;17.002;2022-08-01T10:56:47;30.90;99.90
324;DHT22;149;51.094;17.002;2022-08-01T10:59:20;30.50;99.90
324;DHT22;149;51.094;17.002;2022-08-01T11:02:08;30.10;99.90
324;DHT22;149;51.094;17.002;2022-08-01T11:04:54;29.90;99.90
324;DHT22;149;51.094;17.002;2022-08-01T11:07:45;30.10;99.90
324;DHT22;149;51.094;17.002;2022-08-01T11:10:42;30.50;99.90
324;DHT22;149;51.094;17.002;2022-08-01T11:13:12;30.00;99.90
324;DHT22;149;51.094;17.002;2022-08-01T11:15:41;29.50;99.90
324;DHT22;149;51.094;17.002;2022-08-01T11:18:51;29.40;99.90
324;DHT22;149;51.094;17.002;2022-08-01T11:21:18;29.40;99.90
324;DHT22;149;51.094;17.002;2022-08-01T11:24:05;29.60;99.90
324;DHT22;149;51.094;17.002;2022-08-01T11:26:33;30.00;99.90
324;DHT22;149;51.094;17.002;2022-08-01T11:29:15;30.20;99.90
324;DHT22;149;51.094;17.002;2022-08-01T11:34:15;29.80;99.90
324;DHT22;149;51.094;17.002;2022-08-01T11:36:42;29.90;99.90
324;DHT22;149;51.094;17.002;2022-08-01T11:39:25;30.10;99.90
324;DHT22;149;51.094;17.002;2022-08-01T11:41:52;30.40;99.90
324;DHT22;149;51.094;17.002;2022-08-01T11:44:24;30.40;99.90
324;DHT22;149;51.094;17.002;2022-08-01T11:47:04;30.60;99.90
324;DHT22;149;51.094;17.002;2022-08-01T11:49:45;30.70;99.90
324;DHT22;149;51.094;17.002;2022-08-01T11:54:49;30.80;99.90
324;DHT22;149;51.094;17.002;2022-08-01T11:57:21;31.00;99.90
324;DHT22;149;51.094;17.002;2022-08-01T12:00:21;31.10;99.90
324;DHT22;149;51.094;17.002;2022-08-01T12:03:05;30.50;99.90
324;DHT22;149;51.094;17.002;2022-08-01T12:05:34;30.60;99.90
324;DHT22;149;51.094;17.002;2022-08-01T12:08:08;30.30;99.90
324;DHT22;149;51.094;17.002;2022-08-01T12:10:35;30.00;99.90
324;DHT22;149;51.094;17.002;2022-08-01T12:13:15;30.20;99.90
324;DHT22;149;51.094;17.002;2022-08-01T12:15:44;30.30;99.90
324;DHT22;149;51.094;17.002;2022-08-01T12:18:13;30.50;99.90
324;DHT22;149;51.094;17.002;2022-08-01T12:20:44;30.60;99.90
324;DHT22;149;51.094;17.002;2022-08-01T12:25:55;30.70;99.90
324;DHT22;149;51.094;17.002;2022-08-01T12:28:25;30.50;99.90
324;DHT22;149;51.094;17.002;2022-08-01T12:33:21;29.90;99.90
324;DHT22;149;51.094;17.002;2022-08-01T12:38:18;29.30;99.90
324;DHT22;149;51.094;17.002;2022-08-01T12:40:46;29.30;99.90
324;DHT22;149;51.094;17.002;2022-08-01T12:43:22;29.70;99.90
324;DHT22;149;51.094;17.002;2022-08-01T12:45:58;29.60;99.90
324;DHT22;149;51.094;17.002;2022-08-01T12:48:29;29.80;99.90
324;DHT22;149;51.094;17.002;2022-08-01T12:50:58;29.50;99.90
324;DHT22;149;51.094;17.002;2022-08-01T12:53:27;29.10;99.90
324;DHT22;149;51.094;17.002;2022-08-01T12:56:07;28.70;99.90
324;DHT22;149;51.094;17.002;2022-08-01T12:58:36;28.20;99.90
324;DHT22;149;51.094;17.002;2022-08-01T13:01:08;28.10;99.90
324;DHT22;149;51.094;17.002;2022-08-01T13:03:36;28.30;99.90
324;DHT22;149;51.094;17.002;2022-08-01T13:06:12;28.50;99.90
324;DHT22;149;51.094;17.002;2022-08-01T13:08:42;29.00;99.90
324;DHT22;149;51.094;17.002;2022-08-01T13:11:11;29.30;99.90
324;DHT22;149;51.094;17.002;2022-08-01T13:13:49;29.30;99.90
324;DHT22;149;51.094;17.002;2022-08-01T13:16:17;29.40;99.90
324;DHT22;149;51.094;17.002;2022-08-01T13:19:04;29.20;99.90
324;DHT22;149;51.094;17.002;2022-08-01T13:21:33;29.20;99.90
324;DHT22;149;51.094;17.002;2022-08-01T13:24:28;29.20;99.90
324;DHT22;149;51.094;17.002;2022-08-01T13:29:36;28.70;99.90
324;DHT22;149;51.094;17.002;2022-08-01T13:35:04;28.70;99.90
324;DHT22;149;51.094;17.002;2022-08-01T13:37:31;29.00;99.90
324;DHT22;149;51.094;17.002;2022-08-01T13:40:05;29.20;99.90
324;DHT22;149;51.094;17.002;2022-08-01T13:42:32;29.20;99.90
324;DHT22;149;51.094;17.002;2022-08-01T13:45:04;29.10;99.90
324;DHT22;149;51.094;17.002;2022-08-01T13:47:40;28.90;99.90
324;DHT22;149;51.094;17.002;2022-08-01T13:50:29;28.80;99.90
324;DHT22;149;51.094;17.002;2022-08-01T13:52:56;28.60;99.90
324;DHT22;149;51.094;17.002;2022-08-01T13:55:23;28.30;99.90
324;DHT22;149;51.094;17.002;2022-08-01T13:57:51;28.20;99.90
324;DHT22;149;51.094;17.002;2022-08-01T14:00:18;28.20;99.90
324;DHT22;149;51.094;17.002;2022-08-01T14:02:46;28.30;99.90
324;DHT22;149;51.094;17.002;2022-08-01T14:05:13;28.40;99.90
324;DHT22;149;51.094;17.002;2022-08-01T14:07:40;28.20;99.90
324;DHT22;149;51.094;17.002;2022-08-01T14:10:07;27.90;99.90
324;DHT22;149;51.094;17.002;2022-08-01T14:12:46;27.70;99.90
324;DHT22;149;51.094;17.002;2022-08-01T14:15:13;27.40;99.90
324;DHT22;149;51.094;17.002;2022-08-01T14:18:06;27.00;99.90
324;DHT22;149;51.094;17.002;2022-08-01T14:20:37;26.80;99.90
324;DHT22;149;51.094;17.002;2022-08-01T14:23:04;26.80;99.90
324;DHT22;149;51.094;17.002;2022-08-01T14:25:37;26.80;99.90
324;DHT22;149;51.094;17.002;2022-08-01T14:28:25;26.80;99.90
324;DHT22;149;51.094;17.002;2022-08-01T14:30:58;26.90;99.90
324;DHT22;149;51.094;17.002;2022-08-01T14:33:26;26.80;99.90
324;DHT22;149;51.094;17.002;2022-08-01T14:35:53;26.90;99.90
324;DHT22;149;51.094;17.002;2022-08-01T14:38:39;26.90;99.90
324;DHT22;149;51.094;17.002;2022-08-01T14:41:07;27.00;99.90
324;DHT22;149;51.094;17.002;2022-08-01T14:43:35;27.20;99.90
324;DHT22;149;51.094;17.002;2022-08-01T14:46:02;27.20;99.90
324;DHT22;149;51.094;17.002;2022-08-01T14:48:30;27.30;99.90
324;DHT22;149;51.094;17.002;2022-08-01T14:50:58;27.40;99.90
324;DHT22;149;51.094;17.002;2022-08-01T14:53:29;27.40;99.90
324;DHT22;149;51.094;17.002;2022-08-01T14:55:56;27.40;99.90
324;DHT22;149;51.094;17.002;2022-08-01T14:58:26;27.20;99.90
324;DHT22;149;51.094;17.002;2022-08-01T15:00:53;27.20;99.90
324;DHT22;149;51.094;17.002;2022-08-01T15:03:24;27.30;99.90
324;DHT22;149;51.094;17.002;2022-08-01T15:05:51;27.20;99.90
324;DHT22;149;51.094;17.002;2022-08-01T15:08:18;27.30;99.90
324;DHT22;149;51.094;17.002;2022-08-01T15:10:45;27.40;99.90
324;DHT22;149;51.094;17.002;2022-08-01T15:13:19;27.70;99.90
324;DHT22;149;51.094;17.002;2022-08-01T15:15:46;27.80;99.90
324;DHT22;149;51.094;17.002;2022-08-01T15:18:13;27.70;99.90
324;DHT22;149;51.094;17.002;2022-08-01T15:20:40;27.50;99.90
324;DHT22;149;51.094;17.002;2022-08-01T15:23:08;27.40;99.90
324;DHT22;149;51.094;17.002;2022-08-01T15:25:35;27.00;99.90
324;DHT22;149;51.094;17.002;2022-08-01T15:28:08;26.90;99.90
324;DHT22;149;51.094;17.002;2022-08-01T15:30:36;26.80;99.90
324;DHT22;149;51.094;17.002;2022-08-01T15:33:03;27.00;99.90
324;DHT22;149;51.094;17.002;2022-08-01T15:35:30;26.90;99.90
324;DHT22;149;51.094;17.002;2022-08-01T15:37:57;26.80;99.90
324;DHT22;149;51.094;17.002;2022-08-01T15:40:24;26.60;99.90
324;DHT22;149;51.094;17.002;2022-08-01T15:42:51;26.30;99.90
324;DHT22;149;51.094;17.002;2022-08-01T15:45:18;26.10;99.90
324;DHT22;149;51.094;17.002;2022-08-01T15:48:07;26.00;99.90
324;DHT22;149;51.094;17.002;2022-08-01T15:50:35;25.70;99.90
324;DHT22;149;51.094;17.002;2022-08-01T15:53:05;25.20;99.90
324;DHT22;149;51.094;17.002;2022-08-01T15:55:35;25.00;99.90
324;DHT22;149;51.094;17.002;2022-08-01T15:58:05;24.90;99.90
324;DHT22;149;51.094;17.002;2022-08-01T16:00:33;24.70;99.90
324;DHT22;149;51.094;17.002;2022-08-01T16:03:06;24.60;99.90
324;DHT22;149;51.094;17.002;2022-08-01T16:05:32;24.50;99.90
324;DHT22;149;51.094;17.002;2022-08-01T16:08:12;24.40;99.90
324;DHT22;149;51.094;17.002;2022-08-01T16:10:40;24.30;99.90
324;DHT22;149;51.094;17.002;2022-08-01T16:13:07;24.40;99.90
324;DHT22;149;51.094;17.002;2022-08-01T16:15:35;24.50;99.90
324;DHT22;149;51.094;17.002;2022-08-01T16:18:07;24.60;99.90
324;DHT22;149;51.094;17.002;2022-08-01T16:20:35;24.60;99.90
324;DHT22;149;51.094;17.002;2022-08-01T16:23:10;24.50;99.90
324;DHT22;149;51.094;17.002;2022-08-01T16:25:38;24.60;99.90
324;DHT22;149;51.094;17.002;2022-08-01T16:28:05;24.30;99.90
324;DHT22;149;51.094;17.002;2022-08-01T16:30:32;24.20;99.90
324;DHT22;149;51.094;17.002;2022-08-01T16:32:59;24.10;99.90
324;DHT22;149;51.094;17.002;2022-08-01T16:35:39;24.00;99.90
324;DHT22;149;51.094;17.002;2022-08-01T16:38:08;23.90;99.90
324;DHT22;149;51.094;17.002;2022-08-01T16:40:36;23.90;99.90
324;DHT22;149;51.094;17.002;2022-08-01T16:43:18;23.80;99.90
324;DHT22;149;51.094;17.002;2022-08-01T16:45:45;23.70;99.90
324;DHT22;149;51.094;17.002;2022-08-01T16:48:15;23.70;99.90
324;DHT22;149;51.094;17.002;2022-08-01T16:50:45;23.70;99.90
324;DHT22;149;51.094;17.002;2022-08-01T16:53:20;23.70;99.90
324;DHT22;149;51.094;17.002;2022-08-01T16:55:56;23.50;99.90
324;DHT22;149;51.094;17.002;2022-08-01T16:58:23;23.40;99.90
324;DHT22;149;51.094;17.002;2022-08-01T17:00:54;23.30;99.90
324;DHT22;149;51.094;17.002;2022-08-01T17:03:23;23.10;99.90
324;DHT22;149;51.094;17.002;2022-08-01T17:06:11;23.10;99.90
324;DHT22;149;51.094;17.002;2022-08-01T17:08:38;22.90;99.90
324;DHT22;149;51.094;17.002;2022-08-01T17:11:13;22.90;99.90
324;DHT22;149;51.094;17.002;2022-08-01T17:13:41;22.90;99.90
324;DHT22;149;51.094;17.002;2022-08-01T17:16:08;22.90;99.90
324;DHT22;149;51.094;17.002;2022-08-01T17:18:35;22.90;99.90
324;DHT22;149;51.094;17.002;2022-08-01T17:21:02;22.90;99.90
324;DHT22;149;51.094;17.002;2022-08-01T17:23:29;22.90;99.90
324;DHT22;149;51.094;17.002;2022-08-01T17:26:02;22.80;99.90
324;DHT22;149;51.094;17.002;2022-08-01T17:28:29;22.80;99.90
324;DHT22;149;51.094;17.002;2022-08-01T17:30:57;22.70;99.90
324;DHT22;149;51.094;17.002;2022-08-01T17:33:25;22.60;99.90
324;DHT22;149;51.094;17.002;2022-08-01T17:36:12;22.50;99.90
324;DHT22;149;51.094;17.002;2022-08-01T17:38:40;22.60;99.90
324;DHT22;149;51.094;17.002;2022-08-01T17:41:06;22.50;99.90
324;DHT22;149;51.094;17.002;2022-08-01T17:43:33;22.50;99.90
324;DHT22;149;51.094;17.002;2022-08-01T17:46:00;22.30;99.90
324;DHT22;149;51.094;17.002;2022-08-01T17:48:27;22.20;99.90
324;DHT22;149;51.094;17.002;2022-08-01T17:50:55;22.00;99.90
324;DHT22;149;51.094;17.002;2022-08-01T17:53:22;22.10;99.90
324;DHT22;149;51.094;17.002;2022-08-01T17:55:50;22.00;99.90
324;DHT22;149;51.094;17.002;2022-08-01T17:58:24;22.00;99.90
324;DHT22;149;51.094;17.002;2022-08-01T18:01:12;22.00;99.90
324;DHT22;149;51.094;17.002;2022-08-01T18:03:39;21.90;99.90
324;DHT22;149;51.094;17.002;2022-08-01T18:06:08;21.90;99.90
324;DHT22;149;51.094;17.002;2022-08-01T18:08:35;21.70;99.90
324;DHT22;149;51.094;17.002;2022-08-01T18:11:06;21.70;99.90
324;DHT22;149;51.094;17.002;2022-08-01T18:13:34;21.60;99.90
324;DHT22;149;51.094;17.002;2022-08-01T18:16:07;21.50;99.90
324;DHT22;149;51.094;17.002;2022-08-01T18:18:36;21.50;99.90
324;DHT22;149;51.094;17.002;2022-08-01T18:21:04;21.50;99.90
324;DHT22;149;51.094;17.002;2022-08-01T18:23:32;21.50;99.90
324;DHT22;149;51.094;17.002;2022-08-01T18:26:01;21.50;99.90
324;DHT22;149;51.094;17.002;2022-08-01T18:28:29;21.50;99.90
324;DHT22;149;51.094;17.002;2022-08-01T18:31:05;21.50;99.90
324;DHT22;149;51.094;17.002;2022-08-01T18:33:33;21.50;99.90
324;DHT22;149;51.094;17.002;2022-08-01T18:36:02;21.40;99.90
324;DHT22;149;51.094;17.002;2022-08-01T18:38:31;21.30;99.90
324;DHT22;149;51.094;17.002;2022-08-01T18:40:59;21.30;99.90
324;DHT22;149;51.094;17.002;2022-08-01T18:43:27;21.30;99.90
324;DHT22;149;51.094;17.002;2022-08-01T18:45:54;21.20;99.90
324;DHT22;149;51.094;17.002;2022-08-01T18:48:23;21.10;99.90
324;DHT22;149;51.094;17.002;2022-08-01T18:50:50;21.10;99.90
324;DHT22;149;51.094;17.002;2022-08-01T18:53:20;21.00;99.90
324;DHT22;149;51.094;17.002;2022-08-01T18:55:49;21.00;99.90
324;DHT22;149;51.094;17.002;2022-08-01T18:58:16;20.90;99.90
324;DHT22;149;51.094;17.002;2022-08-01T19:00:43;20.90;99.90
324;DHT22;149;51.094;17.002;2022-08-01T19:03:10;20.80;99.90
324;DHT22;149;51.094;17.002;2022-08-01T19:05:39;20.80;99.90
324;DHT22;149;51.094;17.002;2022-08-01T19:08:06;20.70;99.90
324;DHT22;149;51.094;17.002;2022-08-01T19:10:40;20.70;99.90
324;DHT22;149;51.094;17.002;2022-08-01T19:13:07;20.60;99.90
324;DHT22;149;51.094;17.002;2022-08-01T19:15:35;20.50;99.90
324;DHT22;149;51.094;17.002;2022-08-01T19:18:02;20.50;99.90
324;DHT22;149;51.094;17.002;2022-08-01T19:20:29;20.40;99.90
324;DHT22;149;51.094;17.002;2022-08-01T19:22:57;20.40;99.90
324;DHT22;149;51.094;17.002;2022-08-01T19:25:24;20.30;99.90
324;DHT22;149;51.094;17.002;2022-08-01T19:27:51;20.30;99.90
324;DHT22;149;51.094;17.002;2022-08-01T19:30:20;20.30;99.90
324;DHT22;149;51.094;17.002;2022-08-01T19:32:47;20.30;99.90
324;DHT22;149;51.094;17.002;2022-08-01T19:35:15;20.30;99.90
324;DHT22;149;51.094;17.002;2022-08-01T19:37:43;20.10;99.90
324;DHT22;149;51.094;17.002;2022-08-01T19:40:13;20.10;99.90
324;DHT22;149;51.094;17.002;2022-08-01T19:42:55;20.10;99.90
324;DHT22;149;51.094;17.002;2022-08-01T19:45:26;20.10;99.90
324;DHT22;149;51.094;17.002;2022-08-01T19:47:54;20.20;99.90
324;DHT22;149;51.094;17.002;2022-08-01T19:50:27;20.10;99.90
324;DHT22;149;51.094;17.002;2022-08-01T19:52:55;19.90;99.90
324;DHT22;149;51.094;17.002;2022-08-01T19:55:26;20.10;99.90
324;DHT22;149;51.094;17.002;2022-08-01T19:57:56;20.10;99.90
324;DHT22;149;51.094;17.002;2022-08-01T20:00:53;20.20;99.90
324;DHT22;149;51.094;17.002;2022-08-01T20:03:39;20.20;99.90
324;DHT22;149;51.094;17.002;2022-08-01T20:06:34;20.40;99.90
324;DHT22;149;51.094;17.002;2022-08-01T20:09:11;20.80;99.90
324;DHT22;149;51.094;17.002;2022-08-01T20:11:53;20.70;99.90
324;DHT22;149;51.094;17.002;2022-08-01T20:14:29;20.70;99.90
324;DHT22;149;51.094;17.002;2022-08-01T20:16:57;20.80;99.90
324;DHT22;149;51.094;17.002;2022-08-01T20:19:30;20.90;99.90
324;DHT22;149;51.094;17.002;2022-08-01T20:22:03;20.90;99.90
324;DHT22;149;51.094;17.002;2022-08-01T20:24:37;20.90;99.90
324;DHT22;149;51.094;17.002;2022-08-01T20:27:08;20.80;99.90
324;DHT22;149;51.094;17.002;2022-08-01T20:29:39;21.30;99.90
324;DHT22;149;51.094;17.002;2022-08-01T20:32:19;21.20;99.90